Time;durP1;ratioP1;P1;durP2;ratioP2;P2;SDS_P1;SDS_P2;PMS_P1;PMS_P2;Temp;Humidity;BMP_temperature;BMP_pressure;BME280_temperature;BME280_humidity;BME280_pressure;Samples;Min_cycle;Max_cycle;Signal;HPM_P1;HPM_P2
2022/11/09 00:01:41;;;;;;;86.53;43.78;;;7.20;66.20;;;;;;5942276;23;114580;-81
2022/11/09 00:04:09;;;;;;;94.95;45.88;;;7.20;66.20;;;;;;5968096;23;114182;-82
2022/11/09 00:06:36;;;;;;;92.53;44.53;;;7.20;66.70;;;;;;5966443;23;113980;-82
2022/11/09 00:09:04;;;;;;;101.38;48.85;;;7.10;67.00;;;;;;5966214;23;114817;-82
2022/11/09 00:11:35;;;;;;;98.13;47.33;;;7.20;67.10;;;;;;5918918;23;115492;-82
2022/11/09 00:14:03;;;;;;;94.05;46.28;;;7.20;67.10;;;;;;5967035;23;114339;-82
2022/11/09 00:16:30;;;;;;;70.95;38.35;;;7.20;66.90;;;;;;5968993;23;114231;-82
2022/11/09 00:18:57;;;;;;;73.97;38.80;;;7.20;67.10;;;;;;5967378;23;114898;-82
2022/11/09 00:21:24;;;;;;;85.60;43.13;;;7.20;67.30;;;;;;5966609;23;114601;-82
2022/11/09 00:23:51;;;;;;;81.60;42.85;;;7.20;67.20;;;;;;5967703;23;114272;-82
2022/11/09 00:26:19;;;;;;;75.90;39.00;;;7.20;67.10;;;;;;5966913;23;114216;-82
2022/11/09 00:28:46;;;;;;;79.88;41.97;;;7.20;67.30;;;;;;5965175;23;115011;-82
2022/11/09 00:31:18;;;;;;;73.78;41.08;;;7.20;67.10;;;;;;5940527;23;116616;-82
2022/11/09 00:33:52;;;;;;;81.13;42.75;;;7.20;67.50;;;;;;5966618;23;114156;-82
2022/11/09 00:36:20;;;;;;;;;;;7.20;67.50;;;;;;5966576;23;114323;-82
2022/11/09 00:38:49;;;;;;;78.72;39.45;;;7.20;66.90;;;;;;5965390;23;114110;-82
2022/11/09 00:41:16;;;;;;;69.80;39.55;;;7.20;67.60;;;;;;5941279;23;114668;-82
2022/11/09 00:43:43;;;;;;;67.07;37.03;;;7.20;67.70;;;;;;5967739;23;114779;-82
2022/11/09 00:46:10;;;;;;;57.35;35.30;;;7.30;67.40;;;;;;5966151;23;114538;-82
2022/11/09 00:48:37;;;;;;;62.88;35.70;;;7.20;67.30;;;;;;5941422;23;114946;-82
2022/11/09 00:51:04;;;;;;;58.50;34.50;;;7.30;67.20;;;;;;5966469;23;114589;-82
2022/11/09 00:53:31;;;;;;;63.60;36.50;;;7.30;67.50;;;;;;5969343;23;114041;-82
2022/11/09 00:56:03;;;;;;;60.17;32.63;;;7.30;67.10;;;;;;5920793;23;114459;-82
2022/11/09 00:58:34;;;;;;;58.00;33.92;;;7.30;67.40;;;;;;5942174;23;114869;-81
2022/11/09 01:01:15;;;;;;;56.55;33.53;;;7.20;67.00;;;;;;5972028;23;114786;-81
2022/11/09 01:03:43;;;;;;;55.50;32.70;;;7.20;67.50;;;;;;5905545;23;114212;-81
2022/11/09 01:06:19;;;;;;;59.33;33.92;;;7.20;67.50;;;;;;5967817;23;114153;-81
2022/11/09 01:08:46;;;;;;;53.45;32.38;;;7.20;67.10;;;;;;5966437;23;114896;-81
2022/11/09 01:11:14;;;;;;;55.58;33.03;;;7.20;67.00;;;;;;5966676;23;114626;-81
2022/11/09 01:13:42;;;;;;;50.38;30.00;;;7.20;66.90;;;;;;5943816;23;114200;-81
2022/11/09 01:16:11;;;;;;;50.88;29.85;;;7.20;66.70;;;;;;5968271;23;114531;-80
2022/11/09 01:18:38;;;;;;;53.10;31.75;;;7.20;66.80;;;;;;5966279;23;115445;-82
2022/11/09 01:21:08;;;;;;;47.45;29.33;;;7.20;66.60;;;;;;5967368;23;114688;-82
2022/11/09 01:23:35;;;;;;;48.85;29.35;;;7.10;66.60;;;;;;5943161;23;114207;-81
2022/11/09 01:26:04;;;;;;;45.70;27.13;;;7.10;66.80;;;;;;5968680;23;114343;-81
2022/11/09 01:28:31;;;;;;;46.13;28.30;;;7.00;67.10;;;;;;5965616;23;116045;-82
2022/11/09 01:31:02;;;;;;;46.63;27.63;;;7.00;67.20;;;;;;5965701;23;115506;-82
2022/11/09 01:33:30;;;;;;;46.63;27.15;;;7.10;67.00;;;;;;5966421;23;114321;-82
2022/11/09 01:36:05;;;;;;;47.65;28.00;;;7.00;67.00;;;;;;5943490;23;114333;-82
2022/11/09 01:38:32;;;;;;;42.67;26.48;;;7.00;66.90;;;;;;5918478;23;117218;-82
2022/11/09 01:41:00;;;;;;;41.25;25.45;;;7.00;67.00;;;;;;5967043;23;114608;-82
2022/11/09 01:43:27;;;;;;;44.75;25.88;;;7.00;66.90;;;;;;5968238;23;114401;-82
2022/11/09 01:45:58;;;;;;;41.35;25.20;;;7.00;66.80;;;;;;5920369;23;114178;-81
2022/11/09 01:48:50;;;;;;;40.70;25.98;;;7.00;66.70;;;;;;5918480;23;115021;-82
2022/11/09 01:51:53;;;;;;;40.67;23.92;;;7.00;66.80;;;;;;5965614;23;114667;-82
2022/11/09 01:54:25;;;;;;;39.97;25.42;;;6.90;66.70;;;;;;5884277;23;114542;-81
2022/11/09 01:56:58;;;;;;;38.17;24.27;;;6.80;66.80;;;;;;5943258;23;114311;-81
2022/11/09 01:59:28;;;;;;;40.40;24.10;;;6.80;66.80;;;;;;5941457;23;115221;-82
2022/11/09 02:01:55;;;;;;;40.10;24.63;;;6.80;66.90;;;;;;5965589;23;115072;-82
2022/11/09 02:04:25;;;;;;;39.53;23.75;;;6.90;67.00;;;;;;5943185;23;114510;-82
2022/11/09 02:06:53;;;;;;;45.85;24.55;;;6.80;66.90;;;;;;5943413;23;114283;-83
2022/11/09 02:09:42;;;;;;;37.00;23.45;;;6.80;67.10;;;;;;5918694;23;115006;-82
2022/11/09 02:12:09;;;;;;;38.17;24.25;;;6.90;66.90;;;;;;5965387;23;114698;-81
2022/11/09 02:14:38;;;;;;;37.58;23.90;;;6.80;66.90;;;;;;5920022;23;114377;-82
2022/11/09 02:17:05;;;;;;;35.90;22.60;;;6.80;66.90;;;;;;5944355;23;114484;-82
2022/11/09 02:19:32;;;;;;;40.28;23.55;;;6.80;67.00;;;;;;5919231;23;114175;-82
2022/11/09 02:22:00;;;;;;;38.80;22.95;;;6.80;66.90;;;;;;5967074;23;116947;-82
2022/11/09 02:24:29;;;;;;;35.70;21.95;;;6.80;66.90;;;;;;5968411;23;114382;-82
2022/11/09 02:26:56;;;;;;;38.63;23.52;;;6.80;67.00;;;;;;5943215;23;114035;-82
2022/11/09 02:29:35;;;;;;;37.25;23.00;;;6.80;66.90;;;;;;5941851;23;115534;-82
2022/11/09 02:32:05;;;;;;;41.13;24.08;;;6.80;67.20;;;;;;5919481;23;114655;-82
2022/11/09 02:34:32;;;;;;;43.35;24.65;;;6.80;67.10;;;;;;5896882;23;114301;-82
2022/11/09 02:37:01;;;;;;;36.65;24.10;;;6.80;66.80;;;;;;5943040;23;114824;-81
2022/11/09 02:39:28;;;;;;;36.78;22.50;;;6.70;67.10;;;;;;5941416;23;114891;-82
2022/11/09 02:42:04;;;;;;;38.78;23.35;;;6.70;67.30;;;;;;5918912;23;114610;-83
2022/11/09 02:44:46;;;;;;;43.33;29.50;;;6.70;67.50;;;;;;5920810;23;114435;-81
2022/11/09 02:47:14;;;;;;;42.00;27.20;;;6.70;67.40;;;;;;5968176;23;114113;-81
2022/11/09 02:49:42;;;;;;;40.58;25.67;;;6.70;67.60;;;;;;5970895;23;115330;-81
2022/11/09 02:52:09;;;;;;;35.90;23.50;;;6.70;68.00;;;;;;5944967;23;114676;-81
2022/11/09 02:54:37;;;;;;;36.75;22.48;;;6.70;68.50;;;;;;5942808;23;114595;-81
2022/11/09 02:57:04;;;;;;;35.53;20.35;;;6.80;68.10;;;;;;5944140;23;114459;-81
2022/11/09 02:59:32;;;;;;;36.05;21.55;;;6.80;68.00;;;;;;5941849;23;114823;-82
2022/11/09 03:01:59;;;;;;;41.50;23.80;;;6.90;67.80;;;;;;5942125;23;117224;-82
2022/11/09 03:04:29;;;;;;;44.33;23.75;;;6.90;67.50;;;;;;5966913;23;114365;-81
2022/11/09 03:06:56;;;;;;;36.17;20.30;;;6.80;67.10;;;;;;5943860;23;114250;-81
2022/11/09 03:09:24;;;;;;;39.72;22.38;;;6.80;67.20;;;;;;5966382;23;115470;-82
2022/11/09 03:11:51;;;;;;;41.20;22.10;;;6.80;67.30;;;;;;5942298;23;115742;-82
2022/11/09 03:14:19;;;;;;;43.28;22.92;;;6.70;67.20;;;;;;5943811;23;114292;-81
2022/11/09 03:16:50;;;;;;;42.40;23.15;;;6.70;67.20;;;;;;5943590;23;114636;-82
2022/11/09 03:19:18;;;;;;;48.03;24.67;;;6.70;67.30;;;;;;5942622;23;114939;-82
2022/11/09 03:21:48;;;;;;;39.97;22.30;;;6.70;67.40;;;;;;5966453;23;114748;-81
2022/11/09 03:24:20;;;;;;;42.25;23.23;;;6.70;67.40;;;;;;5967188;23;114305;-81
2022/11/09 03:26:49;;;;;;;41.00;22.30;;;6.60;67.60;;;;;;5963199;23;114732;-83
2022/11/09 03:29:16;;;;;;;38.92;22.45;;;6.70;67.90;;;;;;5940694;23;115950;-81
2022/11/09 03:31:43;;;;;;;39.45;22.58;;;6.60;67.80;;;;;;5965686;23;115116;-81
2022/11/09 03:34:11;;;;;;;39.90;22.60;;;6.60;67.90;;;;;;5943100;23;114321;-81
2022/11/09 03:36:38;;;;;;;41.40;23.63;;;6.70;67.80;;;;;;5967018;23;114645;-81
2022/11/09 03:39:06;;;;;;;38.40;22.38;;;6.60;67.90;;;;;;5942381;23;114943;-81
2022/11/09 03:41:34;;;;;;;37.38;22.05;;;6.60;67.70;;;;;;5941870;23;114659;-81
2022/11/09 03:44:01;;;;;;;44.30;23.30;;;6.60;68.10;;;;;;5966636;23;114102;-81
2022/11/09 03:46:28;;;;;;;36.90;21.27;;;6.60;67.90;;;;;;5943668;23;114512;-81
2022/11/09 03:48:55;;;;;;;36.55;22.25;;;6.60;67.80;;;;;;5940129;23;117229;-82
2022/11/09 03:51:22;;;;;;;41.83;22.77;;;6.60;67.80;;;;;;5965347;23;114677;-81
2022/11/09 03:53:49;;;;;;;40.53;21.70;;;6.60;68.00;;;;;;5967310;23;114126;-81
2022/11/09 03:56:16;;;;;;;38.13;22.88;;;6.60;68.00;;;;;;5943249;23;114255;-81
2022/11/09 03:58:43;;;;;;;37.45;21.60;;;6.60;67.90;;;;;;5941045;23;114828;-82
2022/11/09 04:01:10;;;;;;;41.67;22.13;;;6.60;67.90;;;;;;5966671;23;116143;-81
2022/11/09 04:03:37;;;;;;;37.40;20.55;;;6.60;67.90;;;;;;5966692;23;114238;-81
2022/11/09 04:06:04;;;;;;;39.10;22.67;;;6.60;67.90;;;;;;5968106;23;114418;-81
2022/11/09 04:08:31;;;;;;;38.90;22.27;;;6.60;67.90;;;;;;5967133;23;115009;-81
2022/11/09 04:10:58;;;;;;;37.60;20.88;;;6.60;67.90;;;;;;5967534;23;115751;-81
2022/11/09 04:13:25;;;;;;;37.38;21.67;;;6.60;68.00;;;;;;5968353;23;114074;-81
2022/11/09 04:15:52;;;;;;;38.90;21.17;;;6.60;68.10;;;;;;5969041;23;114243;-81
2022/11/09 04:18:19;;;;;;;39.75;21.55;;;6.70;67.90;;;;;;5964902;23;115094;-82
2022/11/09 04:20:47;;;;;;;38.30;21.27;;;6.60;67.80;;;;;;5966791;23;114647;-81
2022/11/09 04:23:14;;;;;;;35.28;21.15;;;6.60;67.80;;;;;;5968436;23;114196;-82
2022/11/09 04:25:41;;;;;;;38.40;20.98;;;6.70;67.90;;;;;;5921020;23;114443;-81
2022/11/09 04:28:17;;;;;;;38.53;21.50;;;6.70;67.50;;;;;;5966916;23;114841;-81
2022/11/09 04:30:44;;;;;;;36.47;21.10;;;6.60;67.30;;;;;;5943211;23;114766;-82
2022/11/09 04:33:12;;;;;;;38.72;21.08;;;6.60;67.80;;;;;;5969273;23;114151;-81
2022/11/09 04:35:39;;;;;;;37.60;21.45;;;6.60;67.90;;;;;;5944877;23;114865;-82
2022/11/09 04:38:07;;;;;;;32.97;19.80;;;6.60;67.60;;;;;;5970091;23;114780;-82
2022/11/09 04:40:34;;;;;;;36.17;19.70;;;6.60;67.70;;;;;;5967502;23;114645;-82
2022/11/09 04:43:03;;;;;;;36.85;21.05;;;6.50;67.70;;;;;;5968219;23;114093;-82
2022/11/09 04:45:31;;;;;;;35.85;20.88;;;6.50;67.70;;;;;;5968363;23;114204;-82
2022/11/09 04:47:59;;;;;;;36.88;20.77;;;6.60;67.80;;;;;;5966083;23;114840;-82
2022/11/09 04:50:26;;;;;;;35.35;20.10;;;6.60;67.80;;;;;;5941760;23;114694;-81
2022/11/09 04:52:53;;;;;;;32.95;19.92;;;6.60;67.80;;;;;;5966948;23;114411;-82
2022/11/09 04:55:20;;;;;;;36.70;20.63;;;6.60;67.80;;;;;;5966552;23;114405;-82
2022/11/09 04:57:48;;;;;;;34.28;21.27;;;6.60;67.60;;;;;;5967029;23;115005;-82
2022/11/09 05:00:15;;;;;;;32.97;19.83;;;6.60;67.60;;;;;;5968015;23;114604;-82
2022/11/09 05:02:42;;;;;;;31.42;19.55;;;6.60;68.10;;;;;;5943197;23;114368;-82
2022/11/09 05:05:09;;;;;;;40.45;21.50;;;6.60;68.00;;;;;;5968140;23;114269;-81
2022/11/09 05:07:36;;;;;;;33.78;19.48;;;6.60;67.60;;;;;;5966794;23;114957;-81
2022/11/09 05:10:04;;;;;;;32.50;20.02;;;6.70;67.70;;;;;;5967359;23;115210;-81
2022/11/09 05:12:31;;;;;;;37.10;19.92;;;6.60;67.80;;;;;;5968018;23;114210;-81
2022/11/09 05:14:58;;;;;;;34.97;19.73;;;6.60;67.70;;;;;;5968523;23;114259;-81
2022/11/09 05:17:25;;;;;;;34.03;19.95;;;6.60;67.70;;;;;;5967264;23;114987;-81
2022/11/09 05:19:52;;;;;;;31.60;19.30;;;6.60;67.60;;;;;;5967298;23;114575;-81
2022/11/09 05:25:08;;;;;;;35.22;21.50;;;6.60;67.70;;;;;;5968947;23;114334;-81
2022/11/09 05:27:35;;;;;;;36.22;19.52;;;6.60;67.70;;;;;;5967091;23;114861;-81
2022/11/09 05:30:02;;;;;;;33.75;20.98;;;6.50;68.60;;;;;;5965926;23;115028;-81
2022/11/09 05:32:29;;;;;;;34.33;19.10;;;6.60;68.70;;;;;;5943078;23;114423;-81
2022/11/09 05:34:56;;;;;;;36.35;19.38;;;6.60;68.40;;;;;;5966733;23;114171;-82
2022/11/09 05:37:23;;;;;;;37.60;21.15;;;6.60;68.70;;;;;;5967291;23;115042;-81
2022/11/09 05:39:52;;;;;;;33.33;20.25;;;6.60;68.00;;;;;;5965734;23;114806;-81
2022/11/09 05:42:19;;;;;;;33.83;19.15;;;6.60;67.90;;;;;;5943858;23;114461;-81
2022/11/09 05:44:47;;;;;;;31.83;19.23;;;6.60;68.20;;;;;;5966900;23;114490;-81
2022/11/09 05:47:15;;;;;;;36.90;21.55;;;6.70;68.10;;;;;;5967251;23;114831;-82
2022/11/09 05:49:42;;;;;;;39.40;21.48;;;6.70;68.10;;;;;;5966315;23;114582;-81
2022/11/09 05:52:09;;;;;;;34.53;21.48;;;6.70;67.90;;;;;;5942980;23;116062;-82
2022/11/09 05:54:36;;;;;;;35.35;19.83;;;6.70;68.10;;;;;;5942785;23;115016;-81
2022/11/09 05:57:03;;;;;;;35.25;20.08;;;6.70;68.30;;;;;;5964732;23;114800;-82
2022/11/09 05:59:30;;;;;;;33.20;19.63;;;6.70;68.30;;;;;;5966739;23;114824;-80
2022/11/09 06:01:57;;;;;;;36.83;21.45;;;6.70;68.30;;;;;;5968387;23;114145;-81
2022/11/09 06:04:24;;;;;;;35.58;20.77;;;6.70;68.00;;;;;;5967591;23;114330;-80
2022/11/09 06:06:51;;;;;;;34.92;19.52;;;6.70;67.90;;;;;;5966255;23;115349;-81
2022/11/09 06:09:18;;;;;;;38.83;21.42;;;6.70;67.70;;;;;;5966119;23;114586;-80
2022/11/09 06:11:45;;;;;;;35.80;21.38;;;6.70;67.80;;;;;;5967435;23;115332;-81
2022/11/09 06:14:12;;;;;;;38.83;21.50;;;6.70;67.60;;;;;;5967857;23;114339;-80
2022/11/09 06:16:39;;;;;;;41.45;22.25;;;6.80;67.70;;;;;;5965713;23;114932;-81
2022/11/09 06:19:06;;;;;;;37.15;20.60;;;6.80;67.80;;;;;;5966612;23;115070;-81
2022/11/09 06:21:33;;;;;;;35.35;18.88;;;6.80;67.90;;;;;;5967655;23;114198;-81
2022/11/09 06:24:00;;;;;;;35.58;20.27;;;6.80;67.60;;;;;;5943314;23;114350;-81
2022/11/09 06:26:27;;;;;;;34.35;19.73;;;6.80;67.70;;;;;;5942159;23;114781;-82
2022/11/09 06:28:54;;;;;;;36.03;20.25;;;6.90;67.70;;;;;;5942380;23;115069;-82
2022/11/09 06:31:21;;;;;;;41.15;23.30;;;7.00;67.60;;;;;;5968222;23;114120;-82
2022/11/09 06:33:48;;;;;;;45.60;26.63;;;7.00;67.40;;;;;;5968246;23;114060;-82
2022/11/09 06:36:15;;;;;;;41.67;24.33;;;7.00;67.50;;;;;;5966796;23;114795;-82
2022/11/09 06:38:42;;;;;;;41.42;24.38;;;7.10;67.70;;;;;;5965794;23;114570;-82
2022/11/09 06:41:09;;;;;;;46.20;27.02;;;7.20;67.90;;;;;;5966470;23;114093;-82
2022/11/09 06:43:36;;;;;;;41.83;25.92;;;7.20;67.80;;;;;;5968362;23;114919;-82
2022/11/09 06:46:03;;;;;;;36.78;23.33;;;7.30;67.80;;;;;;5940830;23;114921;-82
2022/11/09 06:48:30;;;;;;;37.42;23.25;;;7.40;68.20;;;;;;5965196;23;115878;-82
2022/11/09 06:51:01;;;;;;;38.65;23.27;;;7.50;67.90;;;;;;5966645;23;114342;-82
2022/11/09 06:53:29;;;;;;;38.33;24.42;;;7.60;68.10;;;;;;5942837;23;114142;-81
2022/11/09 06:55:57;;;;;;;40.25;24.65;;;7.80;67.80;;;;;;5965451;23;114804;-82
2022/11/09 06:58:25;;;;;;;46.63;26.27;;;8.00;67.50;;;;;;5966441;23;115290;-81
2022/11/09 07:00:51;;;;;;;46.05;26.33;;;8.00;67.30;;;;;;5967947;23;114008;-82
2022/11/09 07:03:19;;;;;;;38.95;24.20;;;8.20;67.10;;;;;;5967111;23;114306;-82
2022/11/09 07:05:47;;;;;;;42.45;26.48;;;8.30;67.30;;;;;;5965755;23;115422;-82
2022/11/09 07:08:14;;;;;;;45.53;27.60;;;8.50;67.20;;;;;;5966917;23;114671;-82
2022/11/09 07:10:42;;;;;;;40.70;26.60;;;8.60;66.70;;;;;;5965666;23;114192;-81
2022/11/09 07:13:09;;;;;;;46.80;26.48;;;8.70;66.50;;;;;;5967801;23;114255;-82
2022/11/09 07:15:36;;;;;;;41.35;24.75;;;8.80;66.30;;;;;;5965484;23;114819;-81
2022/11/09 07:18:04;;;;;;;46.20;26.40;;;8.80;66.10;;;;;;5966895;23;114736;-81
2022/11/09 07:20:31;;;;;;;42.60;24.33;;;8.90;65.90;;;;;;5943219;23;114316;-81
2022/11/09 07:22:58;;;;;;;45.92;26.10;;;8.90;66.00;;;;;;5967501;23;114089;-82
2022/11/09 07:25:26;;;;;;;38.58;23.60;;;9.00;66.10;;;;;;5940961;23;117627;-82
2022/11/09 07:27:53;;;;;;;42.97;25.92;;;9.20;66.00;;;;;;5966279;23;115306;-84
2022/11/09 07:30:20;;;;;;;44.42;23.98;;;9.20;65.80;;;;;;5941600;23;114345;-81
2022/11/09 07:32:47;;;;;;;41.45;22.98;;;9.30;65.80;;;;;;5967069;23;114468;-81
2022/11/09 07:35:34;;;;;;;40.88;26.00;;;9.50;65.80;;;;;;5963589;23;116046;-81
2022/11/09 07:38:01;;;;;;;48.20;25.63;;;9.60;65.80;;;;;;5966054;23;114655;-81
2022/11/09 07:40:28;;;;;;;41.47;23.98;;;9.70;66.00;;;;;;5966760;23;114556;-81
2022/11/09 07:42:59;;;;;;;38.92;23.73;;;9.80;65.70;;;;;;5918001;23;114427;-81
2022/11/09 07:45:28;;;;;;;37.03;22.98;;;9.90;66.40;;;;;;5940525;23;114907;-81
2022/11/09 07:47:56;;;;;;;35.03;21.52;;;10.10;66.20;;;;;;5964029;23;115171;-81
2022/11/09 07:50:24;;;;;;;34.55;20.35;;;10.30;66.00;;;;;;5966673;23;114331;-82
2022/11/09 07:52:51;;;;;;;35.78;20.35;;;10.40;65.90;;;;;;5965307;23;114297;-82
2022/11/09 07:55:18;;;;;;;30.85;19.45;;;10.60;65.20;;;;;;5963618;23;114755;-82
2022/11/09 07:57:46;;;;;;;27.35;17.77;;;10.70;64.40;;;;;;5964190;23;114612;-81
2022/11/09 08:00:13;;;;;;;25.85;16.75;;;10.90;64.20;;;;;;5968709;23;114254;-82
2022/11/09 08:02:46;;;;;;;21.05;13.02;;;11.00;63.90;;;;;;5967637;23;114675;-81
2022/11/09 08:05:13;;;;;;;22.83;14.55;;;11.10;63.50;;;;;;5966501;23;114966;-82
2022/11/09 08:07:40;;;;;;;23.27;14.48;;;11.20;63.40;;;;;;5968375;23;114610;-82
2022/11/09 08:10:07;;;;;;;27.60;16.52;;;11.30;63.30;;;;;;5968463;23;114531;-81
2022/11/09 08:12:34;;;;;;;22.83;14.73;;;11.40;63.00;;;;;;5968194;23;115082;-82
2022/11/09 08:15:04;;;;;;;23.92;14.13;;;11.50;62.80;;;;;;5967077;23;114931;-82
2022/11/09 08:17:31;;;;;;;22.98;14.25;;;11.50;62.30;;;;;;5969631;23;114552;-79
2022/11/09 08:19:58;;;;;;;22.55;14.10;;;11.60;62.40;;;;;;5968795;23;114322;-82
2022/11/09 08:22:25;;;;;;;25.48;14.73;;;11.70;62.30;;;;;;5968565;23;114556;-82
2022/11/09 08:24:52;;;;;;;21.00;13.30;;;11.70;62.40;;;;;;5968595;23;114865;-81
2022/11/09 08:27:21;;;;;;;20.33;14.40;;;11.70;62.00;;;;;;5970018;23;114628;-81
2022/11/09 08:29:48;;;;;;;23.77;15.40;;;11.80;62.00;;;;;;5945075;23;114535;-82
2022/11/09 08:32:16;;;;;;;24.98;16.10;;;11.90;61.90;;;;;;5968039;23;115939;-82
2022/11/09 08:34:47;;;;;;;28.45;16.67;;;11.90;61.80;;;;;;5968862;23;114971;-80
2022/11/09 08:37:14;;;;;;;20.48;11.50;;;12.00;61.90;;;;;;5944019;23;114570;-81
2022/11/09 08:39:41;;;;;;;17.15;11.50;;;12.00;61.10;;;;;;5968573;23;114434;-82
2022/11/09 08:42:10;;;;;;;18.67;11.02;;;11.90;61.30;;;;;;5969814;23;114604;-81
2022/11/09 08:44:37;;;;;;;17.52;10.98;;;12.00;61.00;;;;;;5943748;23;115878;-81
2022/11/09 08:47:07;;;;;;;18.35;10.73;;;11.90;61.00;;;;;;5968796;23;114649;-81
2022/11/09 08:49:34;;;;;;;19.98;13.82;;;12.00;60.70;;;;;;5969322;23;114716;-82
2022/11/09 08:52:26;;;;;;;20.23;14.07;;;12.00;60.90;;;;;;5969618;23;114097;-82
2022/11/09 08:54:53;;;;;;;19.30;11.68;;;12.10;60.80;;;;;;5968110;23;114938;-82
2022/11/09 08:57:22;;;;;;;16.33;10.50;;;12.00;60.70;;;;;;5968571;23;114933;-83
2022/11/09 08:59:49;;;;;;;17.88;11.85;;;12.00;60.70;;;;;;5967206;23;114266;-80
2022/11/09 09:02:18;;;;;;;16.52;10.55;;;12.10;60.70;;;;;;5963883;23;114270;-80
2022/11/09 09:04:45;;;;;;;16.52;10.63;;;12.10;60.50;;;;;;5968544;23;115284;-81
2022/11/09 09:07:14;;;;;;;17.33;11.00;;;12.10;60.30;;;;;;5967755;23;114827;-81
2022/11/09 09:09:45;;;;;;;19.15;10.85;;;12.20;60.20;;;;;;5943262;23;115781;-82
2022/11/09 09:12:12;;;;;;;22.63;13.48;;;12.20;60.30;;;;;;5942551;23;115247;-81
2022/11/09 09:14:39;;;;;;;27.02;16.42;;;12.30;60.50;;;;;;5966292;23;115063;-82
2022/11/09 09:17:07;;;;;;;23.67;15.73;;;12.40;60.70;;;;;;5966959;23;114999;-81
2022/11/09 09:19:34;;;;;;;23.83;15.73;;;12.50;60.70;;;;;;5967929;23;114162;-81
2022/11/09 09:22:01;;;;;;;22.95;15.27;;;12.60;60.80;;;;;;5967747;23;114250;-81
2022/11/09 09:24:32;;;;;;;24.35;15.40;;;12.60;60.50;;;;;;5941473;23;118116;-81
2022/11/09 09:27:02;;;;;;;26.40;15.95;;;12.70;60.30;;;;;;5941380;23;116071;-83
2022/11/09 09:29:29;;;;;;;21.02;15.02;;;12.70;60.20;;;;;;5965995;23;114407;-81
2022/11/09 09:32:02;;;;;;;23.20;15.57;;;12.70;60.10;;;;;;5968325;23;114274;-81
2022/11/09 09:34:32;;;;;;;22.23;14.63;;;12.70;60.00;;;;;;5965176;23;115273;-81
2022/11/09 09:37:03;;;;;;;22.42;15.45;;;12.70;60.00;;;;;;5966592;23;114676;-81
2022/11/09 09:39:34;;;;;;;22.67;14.52;;;12.70;59.70;;;;;;5966917;23;114353;-79
2022/11/09 09:42:04;;;;;;;21.60;15.45;;;12.70;59.60;;;;;;5942146;23;114404;-80
2022/11/09 09:44:38;;;;;;;23.00;16.13;;;12.70;59.60;;;;;;5966519;23;114837;-79
2022/11/09 09:47:24;;;;;;;25.27;17.52;;;12.80;59.60;;;;;;5966333;23;114806;-80
2022/11/09 09:50:02;;;;;;;29.83;18.30;;;12.90;59.60;;;;;;5942816;23;114554;-82
2022/11/09 09:53:03;;;;;;;23.98;16.63;;;12.90;59.60;;;;;;5942430;23;114543;-81
2022/11/09 09:56:16;;;;;;;22.42;14.75;;;13.00;59.50;;;;;;5965495;23;115187;-81
2022/11/09 09:58:58;;;;;;;23.05;14.70;;;12.90;59.40;;;;;;5943292;23;115019;-82
2022/11/09 10:01:33;;;;;;;25.52;15.40;;;13.00;59.40;;;;;;5910145;23;114920;-82
2022/11/09 10:04:00;;;;;;;22.60;14.82;;;13.10;59.30;;;;;;5961083;23;114418;-81
2022/11/09 10:06:31;;;;;;;25.63;14.93;;;13.20;59.20;;;;;;5941090;23;114875;-81
2022/11/09 10:09:19;;;;;;;24.20;15.85;;;13.20;58.90;;;;;;5961887;23;114814;-82
2022/11/09 10:11:57;;;;;;;22.02;15.48;;;13.30;59.00;;;;;;5942899;23;114728;-82
2022/11/09 10:15:21;;;;;;;22.75;14.45;;;13.30;58.90;;;;;;5965877;23;114735;-81
2022/11/09 10:18:00;;;;;;;20.85;13.55;;;13.50;58.70;;;;;;5931447;23;115625;-81
2022/11/09 10:20:36;;;;;;;20.52;14.13;;;13.50;58.30;;;;;;5942503;23;114768;-80
2022/11/09 10:23:15;;;;;;;22.92;15.02;;;13.60;58.20;;;;;;5942527;23;114572;-82
2022/11/09 10:25:45;;;;;;;20.25;14.82;;;13.60;57.90;;;;;;5966433;23;114536;-81
2022/11/09 10:28:32;;;;;;;21.75;13.77;;;13.60;58.00;;;;;;5945378;23;114818;-81
2022/11/09 10:31:23;;;;;;;20.33;13.90;;;13.70;57.80;;;;;;5945505;23;114625;-81
2022/11/09 10:34:04;;;;;;;18.95;13.25;;;13.70;57.60;;;;;;5942007;23;115112;-81
2022/11/09 10:36:46;;;;;;;17.25;12.30;;;13.80;57.10;;;;;;5944500;23;114200;-81
2022/11/09 10:39:15;;;;;;;19.42;12.50;;;13.90;57.00;;;;;;5919963;23;114785;-80
2022/11/09 10:42:04;;;;;;;18.45;11.88;;;13.90;56.80;;;;;;5945417;23;116723;-81
2022/11/09 10:44:50;;;;;;;16.00;11.32;;;13.90;56.70;;;;;;5967969;23;114303;-81
2022/11/09 10:47:49;;;;;;;14.93;10.32;;;13.90;56.80;;;;;;5967523;23;114141;-82
2022/11/09 10:50:50;;;;;;;14.95;8.65;;;14.10;56.30;;;;;;5965721;23;115551;-81
2022/11/09 10:53:37;;;;;;;13.93;8.23;;;14.00;55.50;;;;;;5966149;23;114683;-82
2022/11/09 10:56:26;;;;;;;11.45;7.07;;;14.00;55.50;;;;;;5946423;23;114437;-81
2022/11/09 10:59:38;;;;;;;10.02;6.70;;;14.10;55.20;;;;;;5948527;23;115544;-83
2022/11/09 11:02:25;;;;;;;17.35;7.50;;;14.10;54.80;;;;;;5921186;23;117818;-82
2022/11/09 11:05:15;;;;;;;11.98;6.97;;;14.10;54.80;;;;;;5966447;23;114639;-81
2022/11/09 11:08:23;;;;;;;11.60;6.82;;;14.10;54.50;;;;;;5966079;23;114286;-82
2022/11/09 11:11:20;;;;;;;9.73;6.65;;;14.20;54.00;;;;;;5949006;23;114319;-81
2022/11/09 11:14:35;;;;;;;10.27;6.75;;;14.10;54.30;;;;;;5948383;23;115001;-80
2022/11/09 11:17:27;;;;;;;8.60;6.57;;;14.20;53.90;;;;;;5944889;23;115369;-81
2022/11/09 11:20:31;;;;;;;11.45;7.20;;;14.20;54.00;;;;;;5922980;23;115375;-82
2022/11/09 11:23:19;;;;;;;11.57;7.43;;;14.20;54.10;;;;;;5967365;23;114373;-81
2022/11/09 11:26:18;;;;;;;11.20;6.35;;;14.20;54.10;;;;;;5927498;23;114980;-81
2022/11/09 11:29:07;;;;;;;;;;;14.30;53.70;;;;;;5967049;23;118038;-83
2022/11/09 11:32:06;;;;;;;12.05;7.20;;;14.20;55.00;;;;;;5948068;23;116062;-81
2022/11/09 11:34:57;;;;;;;13.50;7.40;;;14.30;53.70;;;;;;5907383;23;114297;-81
2022/11/09 11:37:55;;;;;;;11.75;7.07;;;14.30;53.70;;;;;;5946677;23;115069;-81
2022/11/09 11:41:02;;;;;;;12.32;6.55;;;14.30;53.10;;;;;;5945538;23;116410;-81
2022/11/09 11:44:33;;;;;;;13.98;7.63;;;14.30;53.30;;;;;;5949244;23;114767;-81
2022/11/09 11:47:47;;;;;;;10.05;6.63;;;14.30;53.30;;;;;;5945144;23;114434;-81
2022/11/09 11:51:00;;;;;;;11.48;7.57;;;14.30;52.60;;;;;;5929695;23;114814;-81
2022/11/09 11:54:31;;;;;;;9.90;6.75;;;14.20;53.00;;;;;;5964481;23;114655;-83
2022/11/09 11:57:49;;;;;;;11.27;7.65;;;14.30;53.20;;;;;;5853115;24;114838;-81
2022/11/09 12:01:22;;;;;;;11.07;6.53;;;14.20;53.00;;;;;;5852773;24;114237;-83
2022/11/09 12:04:27;;;;;;;10.77;7.07;;;14.20;53.30;;;;;;5942263;23;116459;-81
2022/11/09 12:07:55;;;;;;;11.98;7.20;;;14.20;53.30;;;;;;5962928;23;115109;-82
2022/11/09 12:11:20;;;;;;;10.65;7.50;;;14.20;53.30;;;;;;5955276;23;114613;-81
2022/11/09 12:14:43;;;;;;;9.85;6.95;;;14.30;53.10;;;;;;5938171;23;114535;-80
2022/11/09 12:17:36;;;;;;;10.77;7.18;;;14.30;53.10;;;;;;5935264;23;114933;-82
2022/11/09 12:20:33;;;;;;;11.35;7.97;;;14.20;53.30;;;;;;5935129;23;115383;-81
2022/11/09 12:23:32;;;;;;;12.02;8.20;;;14.30;53.00;;;;;;5935659;23;114949;-82
2022/11/09 12:26:25;;;;;;;12.15;7.82;;;14.30;53.00;;;;;;5957282;23;114500;-82
2022/11/09 12:29:18;;;;;;;12.23;7.70;;;14.30;53.10;;;;;;5956543;23;114828;-80
2022/11/09 12:32:30;;;;;;;11.88;8.20;;;14.40;53.00;;;;;;5936687;23;115691;-80
2022/11/09 12:35:20;;;;;;;11.80;7.40;;;14.40;53.20;;;;;;5938097;23;114283;-82
2022/11/09 12:38:28;;;;;;;10.93;7.85;;;14.30;53.10;;;;;;5937083;23;114411;-80
2022/11/09 12:41:16;;;;;;;11.68;7.00;;;14.30;53.20;;;;;;5936376;23;114843;-81
2022/11/09 12:44:25;;;;;;;10.68;7.40;;;14.30;53.10;;;;;;5936782;23;114909;-81
2022/11/09 12:47:16;;;;;;;10.85;7.18;;;14.30;52.90;;;;;;5939104;23;114271;-80
2022/11/09 12:50:09;;;;;;;11.13;7.57;;;14.30;53.00;;;;;;5958123;23;114256;-81
2022/11/09 12:52:55;;;;;;;10.88;7.00;;;14.30;52.90;;;;;;5937418;23;115654;-82
2022/11/09 12:56:07;;;;;;;11.45;7.03;;;14.30;53.00;;;;;;5957654;23;114343;-82
2022/11/09 12:58:53;;;;;;;11.00;8.25;;;14.30;53.00;;;;;;5958516;23;114393;-81
2022/11/09 13:01:44;;;;;;;10.43;7.03;;;14.30;53.00;;;;;;5939040;23;114230;-81
2022/11/09 13:04:30;;;;;;;11.43;7.00;;;14.30;53.00;;;;;;5956897;23;114972;-82
2022/11/09 13:07:18;;;;;;;10.45;7.32;;;14.30;53.20;;;;;;5937836;23;115909;-81